Os — LHFA — position and weather

sailwx.info

Track history (hours):
 
Tides and Currents Weather Stations Pressure Air Temp Water Temp Dewpoint Dewpoint Depression Visibility Wind Speed Wind Dir Waves Ship Positions

Os

Last reported at 2017-May-27 21:00 UTC. Time now 2017-May-27 21:22 UTC.
Position N 62°38' E 006°17'.

Length 64 m; draft 3.3 m.

Type: Passenger vessel. MMSI: 257066700.

Date/timePositionNaut miles runAvg speedWind from/ knotsBaromVisibWave heightAir tempDewpointWater temp
2017-May-27 21:00N 62°38' E 006°17'2 4.1
2017-May-27 20:30N 62°36' E 006°16'2 4.2
2017-May-27 20:00N 62°38' E 006°17'2 3.8
2017-May-27 19:29N 62°36' E 006°16'2 4.1
2017-May-27 19:00N 62°38' E 006°17'2 4.1
2017-May-27 18:30N 62°36' E 006°16'2 4.1
2017-May-27 18:00N 62°38' E 006°17'2 4.1
2017-May-27 17:30N 62°36' E 006°16'2 4.1
2017-May-27 17:00N 62°38' E 006°17'3 5.0
2017-May-27 16:28N 62°36' E 006°17'0 0.0
2017-May-27 15:58N 62°36' E 006°17'1 1.3
2017-May-27 15:30N 62°36' E 006°16'2 4.3
2017-May-27 15:00N 62°38' E 006°17'2 4.4
2017-May-27 14:30N 62°36' E 006°16'0 0.3
2017-May-27 13:30N 62°36' E 006°16'2 3.7
2017-May-27 13:00N 62°38' E 006°17'2 3.3
2017-May-27 12:30N 62°37' E 006°15'1 2.3
2017-May-27 12:00N 62°38' E 006°17'2 3.5
2017-May-27 11:30N 62°37' E 006°13'2 4.0
2017-May-27 11:01N 62°38' E 006°17'4 7.2
2017-May-27 10:30N 62°35' E 006°14'2 3.4
2017-May-27 10:00N 62°33' E 006°13'4 7.1
2017-May-27 09:30N 62°36' E 006°16'2 4.3
2017-May-27 09:00N 62°38' E 006°17'2 4.0
2017-May-27 08:30N 62°36' E 006°16'2 4.1
2017-May-27 08:00N 62°38' E 006°17'2 4.2
2017-May-27 07:30N 62°36' E 006°16'2 4.2
2017-May-27 07:00N 62°38' E 006°17'2 3.7
2017-May-27 06:30N 62°36' E 006°16'2 3.7
2017-May-27 06:00N 62°38' E 006°17'2 4.2
2017-May-27 05:30N 62°36' E 006°16'2 4.3
2017-May-27 05:00N 62°38' E 006°17'0 0.1
2017-May-27 04:29N 62°38' E 006°17'0 0.0
2017-May-27 03:59N 62°38' E 006°17'0 0.0
2017-May-27 03:29N 62°38' E 006°17'0 0.0
2017-May-27 02:59N 62°38' E 006°17'0 0.0
2017-May-27 02:29N 62°38' E 006°17'0 0.0
2017-May-27 01:59N 62°38' E 006°17'0 0.0
2017-May-27 01:29N 62°38' E 006°17'0 0.0
2017-May-27 00:59N 62°38' E 006°17'0 0.0
2017-May-27 00:29N 62°38' E 006°17'0 0.0
2017-May-26 23:59N 62°38' E 006°17'0 0.0
2017-May-26 23:29N 62°38' E 006°17'0 0.0
2017-May-26 22:59N 62°38' E 006°17'0 0.0
2017-May-26 22:29N 62°38' E 006°17'0 0.0
2017-May-26 21:59N 62°38' E 006°17'2 3.5
2017-May-26 21:31N 62°37' E 006°15'1 1.4
2017-May-26 21:00N 62°37' E 006°13'2 3.6
2017-May-26 20:30N 62°37' E 006°17'2 3.5
2017-May-26 20:00N 62°37' E 006°13'2 3.4
2017-May-26 19:30N 62°37' E 006°17'2 3.4
2017-May-26 19:00N 62°37' E 006°13'2 3.4
2017-May-26 18:31N 62°37' E 006°17'1 1.9
2017-May-26 18:00N 62°38' E 006°17'2 3.3
2017-May-26 17:30N 62°37' E 006°15'2 3.3
2017-May-26 17:00N 62°38' E 006°17'2 4.1
2017-May-26 16:30N 62°36' E 006°16'2 4.2
2017-May-26 16:00N 62°38' E 006°17'2 3.2
2017-May-26 15:30N 62°37' E 006°15'2 3.3
2017-May-26 15:00N 62°38' E 006°17'2 3.2
2017-May-26 14:30N 62°37' E 006°15'0 0.3
2017-May-26 13:30N 62°37' E 006°15'2 3.4
2017-May-26 13:00N 62°38' E 006°17'2 3.3
2017-May-26 12:30N 62°37' E 006°15'2 3.4
2017-May-26 12:00N 62°38' E 006°17'2 3.4
2017-May-26 11:30N 62°37' E 006°15'2 3.1
2017-May-26 11:00N 62°36' E 006°17'0 0.3
2017-May-26 10:29N 62°36' E 006°17'0 0.2
2017-May-26 10:00N 62°36' E 006°17'0 0.2
2017-May-26 09:29N 62°36' E 006°17'3 5.5
2017-May-26 09:00N 62°38' E 006°17'2 3.2
2017-May-26 08:30N 62°37' E 006°15'2 3.3
2017-May-26 08:00N 62°38' E 006°17'2 3.2
2017-May-26 07:30N 62°37' E 006°16'2 3.3
2017-May-26 07:00N 62°38' E 006°17'2 3.3
2017-May-26 06:30N 62°37' E 006°17'2 3.2
2017-May-26 06:00N 62°37' E 006°13'1 2.6
2017-May-26 05:30N 62°36' E 006°16'2 3.6
2017-May-26 05:00N 62°38' E 006°17'2 3.2
2017-May-26 04:30N 62°37' E 006°16'1 2.1
2017-May-26 04:00N 62°37' E 006°14'2 3.2
2017-May-26 03:30N 62°37' E 006°17'2 3.3
2017-May-26 03:00N 62°37' E 006°13'2 3.7
2017-May-26 02:30N 62°38' E 006°17'0 0.0
2017-May-26 02:00N 62°38' E 006°17'0 0.0
2017-May-26 01:30N 62°38' E 006°17'0 0.0
2017-May-26 01:00N 62°38' E 006°17'0 0.0
2017-May-26 00:30N 62°38' E 006°17'0 0.0
2017-May-26 00:00N 62°38' E 006°17'0 0.0
2017-May-25 23:30N 62°38' E 006°17'0 0.0
2017-May-25 23:00N 62°38' E 006°17'0 0.0
2017-May-25 22:30N 62°38' E 006°17'2 3.4
2017-May-25 22:00N 62°37' E 006°14'1 2.4
2017-May-25 21:30N 62°37' E 006°16'2 3.0
2017-May-25 20:58N 62°38' E 006°17'0 0.0
2017-May-25 20:28N 62°38' E 006°17'2 4.1
2017-May-25 20:00N 62°37' E 006°13'1 2.5
2017-May-25 19:30N 62°37' E 006°16'2 3.6
2017-May-25 19:00N 62°38' E 006°17'2 4.2
2017-May-25 18:30N 62°36' E 006°16'2 4.3
2017-May-25 18:00N 62°38' E 006°17'2 3.9
2017-May-25 17:30N 62°36' E 006°16'2 3.7
2017-May-25 16:59N 62°38' E 006°17'2 4.7
2017-May-25 16:30N 62°36' E 006°16'2 4.4
2017-May-25 16:00N 62°38' E 006°17'2 4.3
2017-May-25 15:31N 62°36' E 006°16'2 4.2
2017-May-25 15:00N 62°38' E 006°17'0 0.0
2017-May-25 14:00N 62°38' E 006°17'2 4.2
2017-May-25 13:30N 62°36' E 006°16'2 4.1
2017-May-25 13:00N 62°38' E 006°17'2 4.4
2017-May-25 12:30N 62°36' E 006°16'2 4.2
2017-May-25 11:59N 62°38' E 006°17'2 4.6
2017-May-25 11:31N 62°36' E 006°16'2 4.4
2017-May-25 11:00N 62°38' E 006°17'3 5.0
2017-May-25 10:28N 62°36' E 006°17'0 0.0
2017-May-25 09:58N 62°36' E 006°17'1 2.2
2017-May-25 09:30N 62°36' E 006°16'2 3.6
2017-May-25 09:00N 62°38' E 006°17'2 4.0
2017-May-25 08:30N 62°36' E 006°16'2 3.9
2017-May-25 08:00N 62°38' E 006°17'2 4.1
2017-May-25 07:30N 62°36' E 006°16'2 4.0
2017-May-25 07:00N 62°38' E 006°17'2 3.8
2017-May-25 06:30N 62°36' E 006°16'2 3.8
2017-May-25 06:00N 62°38' E 006°17'0 0.0
2017-May-25 05:30N 62°38' E 006°17'0 0.0
2017-May-25 05:00N 62°38' E 006°17'0 0.0
2017-May-25 04:30N 62°38' E 006°17'0 0.0
2017-May-25 04:00N 62°38' E 006°17'0 0.0
2017-May-25 03:30N 62°38' E 006°17'0 0.0
2017-May-25 03:00N 62°38' E 006°17'0 0.0
2017-May-25 02:30N 62°38' E 006°17'0 0.0
2017-May-25 02:00N 62°38' E 006°17'0 0.0
2017-May-25 01:30N 62°38' E 006°17'0 0.0
2017-May-25 01:00N 62°38' E 006°17'0 0.0
2017-May-25 00:30N 62°38' E 006°17'0 0.0
2017-May-25 00:00N 62°38' E 006°17'0 0.0
2017-May-24 23:30N 62°38' E 006°17'0 0.0
2017-May-24 23:00N 62°38' E 006°17'0 0.0
2017-May-24 22:30N 62°38' E 006°17'0 0.0
2017-May-24 22:00N 62°38' E 006°17'2 3.3
2017-May-24 21:30N 62°37' E 006°15'1 1.5
2017-May-24 21:00N 62°37' E 006°13'2 3.3
2017-May-24 20:30N 62°37' E 006°17'2 3.5
2017-May-24 20:00N 62°37' E 006°13'2 3.4
2017-May-24 19:30N 62°37' E 006°17'2 3.5
2017-May-24 19:00N 62°37' E 006°13'2 3.4
2017-May-24 18:30N 62°37' E 006°17'1 2.5
2017-May-24 18:00N 62°38' E 006°17'2 3.1
2017-May-24 17:30N 62°37' E 006°15'2 3.0
2017-May-24 17:00N 62°38' E 006°17'2 3.0
2017-May-24 16:31N 62°37' E 006°15'2 3.0
2017-May-24 16:00N 62°38' E 006°17'2 3.4
2017-May-24 15:30N 62°37' E 006°15'2 3.4
2017-May-24 15:00N 62°38' E 006°17'2 3.4
2017-May-24 14:31N 62°37' E 006°15'0 0.1
2017-May-24 13:30N 62°37' E 006°15'2 3.3
2017-May-24 13:00N 62°38' E 006°17'2 3.3
2017-May-24 12:30N 62°37' E 006°15'2 3.3
2017-May-24 12:00N 62°38' E 006°17'2 3.3
2017-May-24 11:30N 62°37' E 006°15'1 2.4
2017-May-24 11:00N 62°36' E 006°17'1 1.6
2017-May-24 10:30N 62°35' E 006°15'4 8.1
2017-May-24 10:01N 62°32' E 006°12'4 7.0
2017-May-24 09:30N 62°35' E 006°15'3 6.7
2017-May-24 09:00N 62°38' E 006°17'2 3.3
2017-May-24 08:30N 62°37' E 006°15'2 3.3
2017-May-24 08:00N 62°38' E 006°17'2 3.2
2017-May-24 07:30N 62°37' E 006°15'2 3.2
2017-May-24 07:00N 62°38' E 006°17'2 3.1
2017-May-24 06:30N 62°37' E 006°17'2 3.2
2017-May-24 06:00N 62°37' E 006°13'0 0.5
2017-May-24 05:30N 62°37' E 006°14'2 3.5
2017-May-24 05:00N 62°38' E 006°17'2 3.4
2017-May-24 04:30N 62°37' E 006°16'1 1.9
2017-May-24 04:01N 62°37' E 006°14'2 3.0
2017-May-24 03:30N 62°37' E 006°17'1 2.9
2017-May-24 03:00N 62°37' E 006°14'2 3.2
2017-May-24 02:29N 62°38' E 006°17'0 0.0
2017-May-24 01:59N 62°38' E 006°17'0 0.0
2017-May-24 01:29N 62°38' E 006°17'0 0.0
2017-May-24 00:59N 62°38' E 006°17'0 0.0
2017-May-24 00:29N 62°38' E 006°17'0 0.0
2017-May-23 23:59N 62°38' E 006°17'0 0.0
2017-May-23 23:29N 62°38' E 006°17'0 0.0
2017-May-23 22:59N 62°38' E 006°17'0 0.0
2017-May-23 22:29N 62°38' E 006°17'0 0.0
2017-May-23 21:59N 62°38' E 006°17'2 3.3
2017-May-23 21:30N 62°37' E 006°16'1 2.2
2017-May-23 21:00N 62°37' E 006°13'2 3.4
2017-May-23 20:31N 62°37' E 006°17'2 3.3
2017-May-23 20:01N 62°37' E 006°13'2 3.6
2017-May-23 19:30N 62°37' E 006°17'2 3.8
2017-May-23 19:00N 62°37' E 006°13'2 3.4
2017-May-23 18:31N 62°37' E 006°17'1 2.3
2017-May-23 18:00N 62°38' E 006°17'2 3.4
2017-May-23 17:30N 62°37' E 006°15'2 3.3
2017-May-23 17:00N 62°38' E 006°17'2 3.3
2017-May-23 16:30N 62°37' E 006°15'2 3.2
2017-May-23 16:00N 62°38' E 006°17'2 3.3
2017-May-23 15:30N 62°37' E 006°15'2 3.3
2017-May-23 15:00N 62°38' E 006°17'0 0.0
2017-May-23 14:00N 62°38' E 006°17'2 3.3
2017-May-23 13:30N 62°37' E 006°15'2 3.3
2017-May-23 13:00N 62°38' E 006°17'2 3.4
2017-May-23 12:30N 62°37' E 006°15'2 3.3
2017-May-23 12:00N 62°38' E 006°17'2 3.4
2017-May-23 11:30N 62°37' E 006°14'2 3.3
2017-May-23 11:00N 62°36' E 006°17'0 0.1
2017-May-23 10:29N 62°36' E 006°17'0 0.2
2017-May-23 10:00N 62°36' E 006°17'0 0.2
2017-May-23 09:29N 62°36' E 006°17'3 5.6
2017-May-23 09:00N 62°38' E 006°17'2 3.6
2017-May-23 08:30N 62°36' E 006°16'2 3.6
2017-May-23 08:00N 62°38' E 006°17'2 3.3
2017-May-23 07:30N 62°37' E 006°15'2 3.2
2017-May-23 07:00N 62°38' E 006°17'2 3.3
2017-May-23 06:30N 62°37' E 006°17'2 3.2
2017-May-23 05:59N 62°37' E 006°13'1 2.2
2017-May-23 05:30N 62°37' E 006°15'2 3.3
2017-May-23 05:00N 62°38' E 006°17'2 3.5
2017-May-23 04:30N 62°37' E 006°16'1 2.1
2017-May-23 04:00N 62°37' E 006°14'1 2.9
2017-May-23 03:31N 62°37' E 006°17'2 3.0
2017-May-23 03:00N 62°37' E 006°14'2 3.4
2017-May-23 02:28N 62°38' E 006°17'0 0.0
2017-May-23 01:58N 62°38' E 006°17'0 0.0
2017-May-23 01:28N 62°38' E 006°17'0 0.0
2017-May-23 00:58N 62°38' E 006°17'0 0.0
2017-May-23 00:28N 62°38' E 006°17'0 0.0
2017-May-23 00:01N 62°38' E 006°17'0 0.0
2017-May-22 23:28N 62°38' E 006°17'0 0.0
2017-May-22 22:58N 62°38' E 006°17'0 0.0
2017-May-22 22:31N 62°38' E 006°17'0 0.0
2017-May-22 22:01N 62°38' E 006°17'2 3.2
2017-May-22 21:30N 62°37' E 006°15'1 1.6
2017-May-22 21:00N 62°37' E 006°13'2 3.4
2017-May-22 20:30N 62°37' E 006°17'2 3.4
2017-May-22 20:00N 62°37' E 006°13'2 3.4
2017-May-22 19:30N 62°37' E 006°17'2 3.1
2017-May-22 19:00N 62°37' E 006°14'2 3.3
2017-May-22 18:30N 62°36' E 006°17'2 3.9
2017-May-22 18:00N 62°38' E 006°17'2 3.3
2017-May-22 17:30N 62°37' E 006°15'2 3.3
2017-May-22 17:00N 62°38' E 006°17'2 3.3
2017-May-22 16:30N 62°37' E 006°15'2 3.4
2017-May-22 16:00N 62°38' E 006°17'2 3.3
2017-May-22 15:30N 62°37' E 006°15'2 3.2
2017-May-22 15:00N 62°38' E 006°17'0 0.0
2017-May-22 14:00N 62°38' E 006°17'2 3.3
2017-May-22 13:30N 62°37' E 006°15'2 3.3
2017-May-22 13:00N 62°38' E 006°17'2 3.2
2017-May-22 12:30N 62°37' E 006°15'2 3.3
2017-May-22 12:00N 62°38' E 006°17'2 3.3
2017-May-22 11:30N 62°37' E 006°14'2 3.2
2017-May-22 10:58N 62°36' E 006°17'0 0.0
2017-May-22 10:28N 62°36' E 006°17'0 0.1
2017-May-22 10:00N 62°36' E 006°17'0 0.0
2017-May-22 09:29N 62°36' E 006°17'3 5.7
2017-May-22 09:00N 62°38' E 006°17'2 3.2
2017-May-22 08:30N 62°37' E 006°15'2 3.2
2017-May-22 08:00N 62°38' E 006°17'2 3.4
2017-May-22 07:30N 62°37' E 006°15'2 3.4
2017-May-22 07:00N 62°38' E 006°17'2 3.1
2017-May-22 06:30N 62°37' E 006°17'2 3.3
2017-May-22 06:00N 62°37' E 006°13'1 2.1
2017-May-22 05:30N 62°37' E 006°15'2 3.3
2017-May-22 05:00N 62°38' E 006°17'2 3.3
2017-May-22 04:30N 62°37' E 006°15'1 1.6
2017-May-22 04:00N 62°37' E 006°13'2 3.4
2017-May-22 03:30N 62°37' E 006°17'2 3.3
2017-May-22 03:00N 62°37' E 006°13'2 3.7
2017-May-22 02:29N 62°38' E 006°17'0 0.0
2017-May-22 01:59N 62°38' E 006°17'0 0.0
2017-May-22 01:29N 62°38' E 006°17'0 0.0
2017-May-22 00:59N 62°38' E 006°17'0 0.0
2017-May-22 00:29N 62°38' E 006°17'0 0.0
2017-May-21 23:59N 62°38' E 006°17'0 0.0
2017-May-21 23:29N 62°38' E 006°17'0 0.0
2017-May-21 22:59N 62°38' E 006°17'0 0.0
2017-May-21 22:29N 62°38' E 006°17'0 0.0
2017-May-21 21:59N 62°38' E 006°17'2 3.8
2017-May-21 21:30N 62°36' E 006°16'2 3.8
2017-May-21 21:00N 62°38' E 006°17'0 0.0
2017-May-21 20:30N 62°38' E 006°17'2 4.0
2017-May-21 20:00N 62°37' E 006°13'2 3.3
2017-May-21 19:31N 62°36' E 006°16'2 4.2
2017-May-21 19:00N 62°38' E 006°17'2 4.1
2017-May-21 18:30N 62°36' E 006°16'2 4.2
2017-May-21 18:00N 62°38' E 006°17'2 3.8
2017-May-21 17:30N 62°36' E 006°16'2 3.9
2017-May-21 17:00N 62°38' E 006°17'2 4.4
2017-May-21 16:30N 62°36' E 006°16'2 4.3
2017-May-21 16:00N 62°38' E 006°17'2 4.3
2017-May-21 15:30N 62°36' E 006°16'2 4.2
2017-May-21 15:00N 62°38' E 006°17'2 4.1
2017-May-21 14:30N 62°36' E 006°16'0 0.0
2017-May-21 13:30N 62°36' E 006°16'2 4.2
2017-May-21 13:00N 62°38' E 006°17'2 3.6
2017-May-21 12:30N 62°36' E 006°16'2 3.6
2017-May-21 12:00N 62°38' E 006°17'2 3.7
2017-May-21 11:30N 62°36' E 006°16'2 3.6
2017-May-21 10:59N 62°38' E 006°17'3 5.5
2017-May-21 10:30N 62°36' E 006°17'0 0.0
2017-May-21 10:00N 62°36' E 006°17'1 1.8
2017-May-21 09:30N 62°36' E 006°16'2 3.8
2017-May-21 09:00N 62°38' E 006°17'2 4.2
2017-May-21 08:30N 62°36' E 006°16'2 4.1
2017-May-21 08:00N 62°38' E 006°17'2 4.3
2017-May-21 07:30N 62°36' E 006°16'2 4.1
2017-May-21 07:00N 62°38' E 006°17'2 4.2
2017-May-21 06:31N 62°36' E 006°16'2 4.1
2017-May-21 06:00N 62°38' E 006°17'0 0.0
2017-May-21 05:28N 62°38' E 006°17'0 0.0
2017-May-21 04:58N 62°38' E 006°17'0 0.0
2017-May-21 04:29N 62°38' E 006°17'0 0.0
2017-May-21 03:58N 62°38' E 006°17'0 0.0
2017-May-21 03:28N 62°38' E 006°17'0 0.0
2017-May-21 02:58N 62°38' E 006°17'0 0.0
2017-May-21 02:28N 62°38' E 006°17'0 0.0
2017-May-21 01:58N 62°38' E 006°17'0 0.0
2017-May-21 01:28N 62°38' E 006°17'0 0.0
2017-May-21 00:58N 62°38' E 006°17'0 0.0
2017-May-21 00:28N 62°38' E 006°17'0 0.0
2017-May-20 23:58N 62°38' E 006°17'0 0.0
2017-May-20 23:28N 62°38' E 006°17'0 0.0
2017-May-20 22:58N 62°38' E 006°17'0 0.0
2017-May-20 22:28N 62°38' E 006°17'2 3.3
2017-May-20 22:00N 62°37' E 006°14'1 2.6
2017-May-20 21:30N 62°36' E 006°16'2 4.0
2017-May-20 21:00N 62°38' E 006°17'2 3.9
2017-May-20 20:30N 62°36' E 006°16'2 3.9
2017-May-20 20:00N 62°38' E 006°17'2 4.3
2017-May-20 19:30N 62°36' E 006°16'2 4.2
2017-May-20 19:00N 62°38' E 006°17'2 4.0
2017-May-20 18:30N 62°36' E 006°16'2 3.8
2017-May-20 18:00N 62°38' E 006°17'2 4.0
2017-May-20 17:30N 62°36' E 006°16'2 3.9
2017-May-20 17:00N 62°38' E 006°17'3 5.4
2017-May-20 16:30N 62°36' E 006°17'0 0.0
2017-May-20 16:00N 62°36' E 006°17'1 2.0
2017-May-20 15:29N 62°36' E 006°16'2 3.8
2017-May-20 15:00N 62°38' E 006°17'2 3.9
2017-May-20 14:30N 62°36' E 006°16'0 0.1
2017-May-20 13:31N 62°36' E 006°16'2 4.1
2017-May-20 13:00N 62°38' E 006°17'2 4.1
2017-May-20 12:31N 62°36' E 006°16'2 4.0
2017-May-20 12:00N 62°38' E 006°17'2 3.4
2017-May-20 11:30N 62°37' E 006°15'2 3.1
2017-May-20 11:00N 62°38' E 006°17'3 6.8
2017-May-20 10:30N 62°35' E 006°14'2 3.9
2017-May-20 10:00N 62°33' E 006°13'4 7.3
2017-May-20 09:30N 62°36' E 006°16'2 3.9
2017-May-20 08:59N 62°38' E 006°17'2 3.9
2017-May-20 08:30N 62°36' E 006°16'2 3.8
2017-May-20 08:00N 62°38' E 006°17'2 3.9
2017-May-20 07:30N 62°36' E 006°16'2 3.8
2017-May-20 07:00N 62°38' E 006°17'2 4.1
2017-May-20 06:30N 62°36' E 006°16'2 4.1
2017-May-20 06:00N 62°38' E 006°17'2 4.2
2017-May-20 05:30N 62°36' E 006°16'2 4.1
2017-May-20 04:59N 62°38' E 006°17'0 0.0
2017-May-20 04:29N 62°38' E 006°17'0 0.0
2017-May-20 03:59N 62°38' E 006°17'0 0.0
2017-May-20 03:30N 62°38' E 006°17'0 0.0
2017-May-20 02:59N 62°38' E 006°17'0 0.0
2017-May-20 02:29N 62°38' E 006°17'0 0.0
2017-May-20 01:59N 62°38' E 006°17'0 0.0
2017-May-20 01:29N 62°38' E 006°17'0 0.0
2017-May-20 01:00N 62°38' E 006°17'0 0.0
2017-May-20 00:29N 62°38' E 006°17'0 0.0
2017-May-19 23:59N 62°38' E 006°17'0 0.0
2017-May-19 23:29N 62°38' E 006°17'0 0.0
2017-May-19 22:59N 62°38' E 006°17'0 0.0
2017-May-19 22:29N 62°38' E 006°17'0 0.6
2017-May-19 22:00N 62°38' E 006°17'2 4.9
2017-May-19 21:30N 62°36' E 006°17'2 4.4
2017-May-19 21:00N 62°37' E 006°13'2 3.1
2017-May-19 20:30N 62°37' E 006°17'2 3.1
2017-May-19 20:00N 62°37' E 006°13'2 3.3
2017-May-19 19:30N 62°37' E 006°17'2 3.3
2017-May-19 19:00N 62°37' E 006°13'2 3.3
2017-May-19 18:30N 62°37' E 006°17'1 2.4
2017-May-19 18:00N 62°38' E 006°17'2 3.4
2017-May-19 17:30N 62°37' E 006°15'2 3.4
2017-May-19 17:00N 62°38' E 006°17'2 3.2
2017-May-19 16:30N 62°37' E 006°15'2 3.2
2017-May-19 16:00N 62°38' E 006°17'2 3.6
2017-May-19 15:30N 62°37' E 006°15'2 3.4
2017-May-19 15:00N 62°38' E 006°17'0 0.0
2017-May-19 14:00N 62°38' E 006°17'2 3.3
2017-May-19 13:31N 62°37' E 006°15'2 3.2
2017-May-19 13:00N 62°38' E 006°17'2 3.3
2017-May-19 12:30N 62°37' E 006°15'2 3.3
2017-May-19 12:00N 62°38' E 006°17'2 3.3
2017-May-19 11:30N 62°37' E 006°15'1 2.9
2017-May-19 11:00N 62°36' E 006°17'0 0.3
2017-May-19 10:30N 62°36' E 006°17'0 0.3
2017-May-19 10:00N 62°36' E 006°17'0 0.3
2017-May-19 09:28N 62°36' E 006°17'3 5.9
2017-May-19 09:00N 62°38' E 006°17'2 3.3
2017-May-19 08:30N 62°37' E 006°15'2 3.3
2017-May-19 08:00N 62°38' E 006°17'2 3.2
2017-May-19 07:30N 62°37' E 006°15'2 3.2
2017-May-19 07:00N 62°38' E 006°17'2 3.5
2017-May-19 06:30N 62°36' E 006°17'2 3.3
2017-May-19 06:00N 62°37' E 006°13'1 2.1
2017-May-19 05:31N 62°37' E 006°15'2 3.3
2017-May-19 05:01N 62°38' E 006°17'2 3.3
2017-May-19 04:30N 62°37' E 006°15'1 1.3
2017-May-19 04:01N 62°37' E 006°13'2 3.4
2017-May-19 03:30N 62°37' E 006°17'2 3.3
2017-May-19 03:00N 62°37' E 006°13'2 3.7
2017-May-19 02:29N 62°38' E 006°17'0 0.0
2017-May-19 01:59N 62°38' E 006°17'0 0.0
2017-May-19 01:29N 62°38' E 006°17'0 0.0
2017-May-19 00:59N 62°38' E 006°17'0 0.0
2017-May-19 00:29N 62°38' E 006°17'0 0.0
2017-May-18 23:59N 62°38' E 006°17'0 0.0
2017-May-18 23:29N 62°38' E 006°17'0 0.0
2017-May-18 22:59N 62°38' E 006°17'0 0.0
2017-May-18 22:29N 62°38' E 006°17'0 0.0
2017-May-18 21:59N 62°38' E 006°17'2 3.4
2017-May-18 21:30N 62°37' E 006°14'1 1.0
2017-May-18 21:00N 62°37' E 006°13'2 3.4
2017-May-18 20:30N 62°37' E 006°17'2 3.3
2017-May-18 19:59N 62°37' E 006°13'2 3.5
2017-May-18 19:30N 62°37' E 006°17'2 3.4
2017-May-18 19:00N 62°37' E 006°13'2 3.3
2017-May-18 18:30N 62°37' E 006°17'1 2.2
2017-May-18 17:59N 62°38' E 006°17'2 3.4
2017-May-18 17:30N 62°37' E 006°15'2 3.4
2017-May-18 17:00N 62°38' E 006°17'2 3.2
2017-May-18 16:29N 62°37' E 006°15'2 3.3
2017-May-18 15:59N 62°38' E 006°17'2 3.4
2017-May-18 15:30N 62°37' E 006°15'2 3.3
2017-May-18 15:00N 62°38' E 006°17'0 0.0
2017-May-18 14:00N 62°38' E 006°17'2 3.4
2017-May-18 13:30N 62°37' E 006°15'2 3.4
2017-May-18 13:00N 62°38' E 006°17'2 3.4
2017-May-18 12:31N 62°37' E 006°15'2 3.4
2017-May-18 12:00N 62°38' E 006°17'2 3.3
2017-May-18 11:30N 62°37' E 006°15'1 2.7
2017-May-18 11:00N 62°36' E 006°17'0 0.2
2017-May-18 10:30N 62°36' E 006°17'0 0.3
2017-May-18 10:00N 62°36' E 006°17'0 0.3
2017-May-18 09:29N 62°36' E 006°17'3 5.6
2017-May-18 09:00N 62°38' E 006°17'2 3.3
2017-May-18 08:30N 62°37' E 006°15'2 3.2
2017-May-18 08:00N 62°38' E 006°17'2 3.3
2017-May-18 07:30N 62°37' E 006°15'2 3.3
2017-May-18 07:00N 62°38' E 006°17'2 3.1
2017-May-18 06:30N 62°37' E 006°17'2 3.2
2017-May-18 06:00N 62°37' E 006°13'1 1.5
2017-May-18 05:30N 62°37' E 006°15'2 3.3
2017-May-18 05:00N 62°38' E 006°17'2 3.3
2017-May-18 04:30N 62°37' E 006°15'1 1.3
2017-May-18 04:00N 62°37' E 006°13'2 3.4
2017-May-18 03:30N 62°37' E 006°17'2 3.1
2017-May-18 03:00N 62°37' E 006°13'2 3.9
2017-May-18 02:30N 62°38' E 006°17'0 0.0
2017-May-18 02:00N 62°38' E 006°17'0 0.0
2017-May-18 01:30N 62°38' E 006°17'0 0.0
2017-May-18 01:00N 62°38' E 006°17'0 0.0
2017-May-18 00:30N 62°38' E 006°17'0 0.0
2017-May-18 00:00N 62°38' E 006°17'0 0.0
2017-May-17 23:30N 62°38' E 006°17'0 0.0
2017-May-17 23:00N 62°38' E 006°17'0 0.0
2017-May-17 22:30N 62°38' E 006°17'2 3.3
2017-May-17 21:59N 62°37' E 006°14'1 2.7
2017-May-17 21:30N 62°36' E 006°16'  
Track history (hours):
 
Tides and Currents Weather Stations Pressure Air Temp Water Temp Dewpoint Dewpoint Depression Visibility Wind Speed Wind Dir Waves Ship Positions

Os

Last reported at 2017-May-27 21:00 UTC. Time now 2017-May-27 21:22 UTC.
Position N 62°38' E 006°17'.

Length 64 m; draft 3.3 m.

Type: Passenger vessel. MMSI: 257066700.

Date/timePositionNaut miles runAvg speedWind from/ knotsBaromVisibWave heightAir tempDewpointWater temp
2017-May-27 21:00N 62°38' E 006°17'2 4.1
2017-May-27 20:30N 62°36' E 006°16'2 4.2
2017-May-27 20:00N 62°38' E 006°17'2 3.8
2017-May-27 19:29N 62°36' E 006°16'2 4.1
2017-May-27 19:00N 62°38' E 006°17'2 4.1
2017-May-27 18:30N 62°36' E 006°16'2 4.1
2017-May-27 18:00N 62°38' E 006°17'2 4.1
2017-May-27 17:30N 62°36' E 006°16'2 4.1
2017-May-27 17:00N 62°38' E 006°17'3 5.0
2017-May-27 16:28N 62°36' E 006°17'0 0.0
2017-May-27 15:58N 62°36' E 006°17'1 1.3
2017-May-27 15:30N 62°36' E 006°16'2 4.3
2017-May-27 15:00N 62°38' E 006°17'2 4.4
2017-May-27 14:30N 62°36' E 006°16'0 0.3
2017-May-27 13:30N 62°36' E 006°16'2 3.7
2017-May-27 13:00N 62°38' E 006°17'2 3.3
2017-May-27 12:30N 62°37' E 006°15'1 2.3
2017-May-27 12:00N 62°38' E 006°17'2 3.5
2017-May-27 11:30N 62°37' E 006°13'2 4.0
2017-May-27 11:01N 62°38' E 006°17'4 7.2
2017-May-27 10:30N 62°35' E 006°14'2 3.4
2017-May-27 10:00N 62°33' E 006°13'4 7.1
2017-May-27 09:30N 62°36' E 006°16'2 4.3
2017-May-27 09:00N 62°38' E 006°17'2 4.0
2017-May-27 08:30N 62°36' E 006°16'2 4.1
2017-May-27 08:00N 62°38' E 006°17'2 4.2
2017-May-27 07:30N 62°36' E 006°16'2 4.2
2017-May-27 07:00N 62°38' E 006°17'2 3.7
2017-May-27 06:30N 62°36' E 006°16'2 3.7
2017-May-27 06:00N 62°38' E 006°17'2 4.2
2017-May-27 05:30N 62°36' E 006°16'2 4.3
2017-May-27 05:00N 62°38' E 006°17'0 0.1
2017-May-27 04:29N 62°38' E 006°17'0 0.0
2017-May-27 03:59N 62°38' E 006°17'0 0.0
2017-May-27 03:29N 62°38' E 006°17'0 0.0
2017-May-27 02:59N 62°38' E 006°17'0 0.0
2017-May-27 02:29N 62°38' E 006°17'0 0.0
2017-May-27 01:59N 62°38' E 006°17'0 0.0
2017-May-27 01:29N 62°38' E 006°17'0 0.0
2017-May-27 00:59N 62°38' E 006°17'0 0.0
2017-May-27 00:29N 62°38' E 006°17'0 0.0
2017-May-26 23:59N 62°38' E 006°17'0 0.0
2017-May-26 23:29N 62°38' E 006°17'0 0.0
2017-May-26 22:59N 62°38' E 006°17'0 0.0
2017-May-26 22:29N 62°38' E 006°17'0 0.0
2017-May-26 21:59N 62°38' E 006°17'2 3.5
2017-May-26 21:31N 62°37' E 006°15'1 1.4
2017-May-26 21:00N 62°37' E 006°13'2 3.6
2017-May-26 20:30N 62°37' E 006°17'2 3.5
2017-May-26 20:00N 62°37' E 006°13'2 3.4
2017-May-26 19:30N 62°37' E 006°17'2 3.4
2017-May-26 19:00N 62°37' E 006°13'2 3.4
2017-May-26 18:31N 62°37' E 006°17'1 1.9
2017-May-26 18:00N 62°38' E 006°17'2 3.3
2017-May-26 17:30N 62°37' E 006°15'2 3.3
2017-May-26 17:00N 62°38' E 006°17'2 4.1
2017-May-26 16:30N 62°36' E 006°16'2 4.2
2017-May-26 16:00N 62°38' E 006°17'2 3.2
2017-May-26 15:30N 62°37' E 006°15'2 3.3
2017-May-26 15:00N 62°38' E 006°17'2 3.2
2017-May-26 14:30N 62°37' E 006°15'0 0.3
2017-May-26 13:30N 62°37' E 006°15'2 3.4
2017-May-26 13:00N 62°38' E 006°17'2 3.3
2017-May-26 12:30N 62°37' E 006°15'2 3.4
2017-May-26 12:00N 62°38' E 006°17'2 3.4
2017-May-26 11:30N 62°37' E 006°15'2 3.1
2017-May-26 11:00N 62°36' E 006°17'0 0.3
2017-May-26 10:29N 62°36' E 006°17'0 0.2
2017-May-26 10:00N 62°36' E 006°17'0 0.2
2017-May-26 09:29N 62°36' E 006°17'3 5.5
2017-May-26 09:00N 62°38' E 006°17'2 3.2
2017-May-26 08:30N 62°37' E 006°15'2 3.3
2017-May-26 08:00N 62°38' E 006°17'2 3.2
2017-May-26 07:30N 62°37' E 006°16'2 3.3
2017-May-26 07:00N 62°38' E 006°17'2 3.3
2017-May-26 06:30N 62°37' E 006°17'2 3.2
2017-May-26 06:00N 62°37' E 006°13'1 2.6
2017-May-26 05:30N 62°36' E 006°16'2 3.6
2017-May-26 05:00N 62°38' E 006°17'2 3.2
2017-May-26 04:30N 62°37' E 006°16'1 2.1
2017-May-26 04:00N 62°37' E 006°14'2 3.2
2017-May-26 03:30N 62°37' E 006°17'2 3.3
2017-May-26 03:00N 62°37' E 006°13'2 3.7
2017-May-26 02:30N 62°38' E 006°17'0 0.0
2017-May-26 02:00N 62°38' E 006°17'0 0.0
2017-May-26 01:30N 62°38' E 006°17'0 0.0
2017-May-26 01:00N 62°38' E 006°17'0 0.0
2017-May-26 00:30N 62°38' E 006°17'0 0.0
2017-May-26 00:00N 62°38' E 006°17'0 0.0
2017-May-25 23:30N 62°38' E 006°17'0 0.0
2017-May-25 23:00N 62°38' E 006°17'0 0.0
2017-May-25 22:30N 62°38' E 006°17'2 3.4
2017-May-25 22:00N 62°37' E 006°14'1 2.4
2017-May-25 21:30N 62°37' E 006°16'2 3.0
2017-May-25 20:58N 62°38' E 006°17'0 0.0
2017-May-25 20:28N 62°38' E 006°17'2 4.1
2017-May-25 20:00N 62°37' E 006°13'1 2.5
2017-May-25 19:30N 62°37' E 006°16'2 3.6
2017-May-25 19:00N 62°38' E 006°17'2 4.2
2017-May-25 18:30N 62°36' E 006°16'2 4.3
2017-May-25 18:00N 62°38' E 006°17'2 3.9
2017-May-25 17:30N 62°36' E 006°16'2 3.7
2017-May-25 16:59N 62°38' E 006°17'2 4.7
2017-May-25 16:30N 62°36' E 006°16'2 4.4
2017-May-25 16:00N 62°38' E 006°17'2 4.3
2017-May-25 15:31N 62°36' E 006°16'2 4.2
2017-May-25 15:00N 62°38' E 006°17'0 0.0
2017-May-25 14:00N 62°38' E 006°17'2 4.2
2017-May-25 13:30N 62°36' E 006°16'2 4.1
2017-May-25 13:00N 62°38' E 006°17'2 4.4
2017-May-25 12:30N 62°36' E 006°16'2 4.2
2017-May-25 11:59N 62°38' E 006°17'2 4.6
2017-May-25 11:31N 62°36' E 006°16'2 4.4
2017-May-25 11:00N 62°38' E 006°17'3 5.0
2017-May-25 10:28N 62°36' E 006°17'0 0.0
2017-May-25 09:58N 62°36' E 006°17'1 2.2
2017-May-25 09:30N 62°36' E 006°16'2 3.6
2017-May-25 09:00N 62°38' E 006°17'2 4.0
2017-May-25 08:30N 62°36' E 006°16'2 3.9
2017-May-25 08:00N 62°38' E 006°17'2 4.1
2017-May-25 07:30N 62°36' E 006°16'2 4.0
2017-May-25 07:00N 62°38' E 006°17'2 3.8
2017-May-25 06:30N 62°36' E 006°16'2 3.8
2017-May-25 06:00N 62°38' E 006°17'0 0.0
2017-May-25 05:30N 62°38' E 006°17'0 0.0
2017-May-25 05:00N 62°38' E 006°17'0 0.0
2017-May-25 04:30N 62°38' E 006°17'0 0.0
2017-May-25 04:00N 62°38' E 006°17'0 0.0
2017-May-25 03:30N 62°38' E 006°17'0 0.0
2017-May-25 03:00N 62°38' E 006°17'0 0.0
2017-May-25 02:30N 62°38' E 006°17'0 0.0
2017-May-25 02:00N 62°38' E 006°17'0 0.0
2017-May-25 01:30N 62°38' E 006°17'0 0.0
2017-May-25 01:00N 62°38' E 006°17'0 0.0
2017-May-25 00:30N 62°38' E 006°17'0 0.0
2017-May-25 00:00N 62°38' E 006°17'0 0.0
2017-May-24 23:30N 62°38' E 006°17'0 0.0
2017-May-24 23:00N 62°38' E 006°17'0 0.0
2017-May-24 22:30N 62°38' E 006°17'0 0.0
2017-May-24 22:00N 62°38' E 006°17'2 3.3
2017-May-24 21:30N 62°37' E 006°15'1 1.5
2017-May-24 21:00N 62°37' E 006°13'2 3.3
2017-May-24 20:30N 62°37' E 006°17'2 3.5
2017-May-24 20:00N 62°37' E 006°13'2 3.4
2017-May-24 19:30N 62°37' E 006°17'2 3.5
2017-May-24 19:00N 62°37' E 006°13'2 3.4
2017-May-24 18:30N 62°37' E 006°17'1 2.5
2017-May-24 18:00N 62°38' E 006°17'2 3.1
2017-May-24 17:30N 62°37' E 006°15'2 3.0
2017-May-24 17:00N 62°38' E 006°17'2 3.0
2017-May-24 16:31N 62°37' E 006°15'2 3.0
2017-May-24 16:00N 62°38' E 006°17'2 3.4
2017-May-24 15:30N 62°37' E 006°15'2 3.4
2017-May-24 15:00N 62°38' E 006°17'2 3.4
2017-May-24 14:31N 62°37' E 006°15'0 0.1
2017-May-24 13:30N 62°37' E 006°15'2 3.3
2017-May-24 13:00N 62°38' E 006°17'2 3.3
2017-May-24 12:30N 62°37' E 006°15'2 3.3
2017-May-24 12:00N 62°38' E 006°17'2 3.3
2017-May-24 11:30N 62°37' E 006°15'1 2.4
2017-May-24 11:00N 62°36' E 006°17'1 1.6
2017-May-24 10:30N 62°35' E 006°15'4 8.1
2017-May-24 10:01N 62°32' E 006°12'4 7.0
2017-May-24 09:30N 62°35' E 006°15'3 6.7
2017-May-24 09:00N 62°38' E 006°17'2 3.3
2017-May-24 08:30N 62°37' E 006°15'2 3.3
2017-May-24 08:00N 62°38' E 006°17'2 3.2
2017-May-24 07:30N 62°37' E 006°15'2 3.2
2017-May-24 07:00N 62°38' E 006°17'2 3.1
2017-May-24 06:30N 62°37' E 006°17'2 3.2
2017-May-24 06:00N 62°37' E 006°13'0 0.5
2017-May-24 05:30N 62°37' E 006°14'2 3.5
2017-May-24 05:00N 62°38' E 006°17'2 3.4
2017-May-24 04:30N 62°37' E 006°16'1 1.9
2017-May-24 04:01N 62°37' E 006°14'2 3.0
2017-May-24 03:30N 62°37' E 006°17'1 2.9
2017-May-24 03:00N 62°37' E 006°14'2 3.2
2017-May-24 02:29N 62°38' E 006°17'0 0.0
2017-May-24 01:59N 62°38' E 006°17'0 0.0
2017-May-24 01:29N 62°38' E 006°17'0 0.0
2017-May-24 00:59N 62°38' E 006°17'0 0.0
2017-May-24 00:29N 62°38' E 006°17'0 0.0
2017-May-23 23:59N 62°38' E 006°17'0 0.0
2017-May-23 23:29N 62°38' E 006°17'0 0.0
2017-May-23 22:59N 62°38' E 006°17'0 0.0
2017-May-23 22:29N 62°38' E 006°17'0 0.0
2017-May-23 21:59N 62°38' E 006°17'2 3.3
2017-May-23 21:30N 62°37' E 006°16'1 2.2
2017-May-23 21:00N 62°37' E 006°13'2 3.4
2017-May-23 20:31N 62°37' E 006°17'2 3.3
2017-May-23 20:01N 62°37' E 006°13'2 3.6
2017-May-23 19:30N 62°37' E 006°17'2 3.8
2017-May-23 19:00N 62°37' E 006°13'2 3.4
2017-May-23 18:31N 62°37' E 006°17'1 2.3
2017-May-23 18:00N 62°38' E 006°17'2 3.4
2017-May-23 17:30N 62°37' E 006°15'2 3.3
2017-May-23 17:00N 62°38' E 006°17'2 3.3
2017-May-23 16:30N 62°37' E 006°15'2 3.2
2017-May-23 16:00N 62°38' E 006°17'2 3.3
2017-May-23 15:30N 62°37' E 006°15'2 3.3
2017-May-23 15:00N 62°38' E 006°17'0 0.0
2017-May-23 14:00N 62°38' E 006°17'2 3.3
2017-May-23 13:30N 62°37' E 006°15'2 3.3
2017-May-23 13:00N 62°38' E 006°17'2 3.4
2017-May-23 12:30N 62°37' E 006°15'2 3.3
2017-May-23 12:00N 62°38' E 006°17'2 3.4
2017-May-23 11:30N 62°37' E 006°14'2 3.3
2017-May-23 11:00N 62°36' E 006°17'0 0.1
2017-May-23 10:29N 62°36' E 006°17'0 0.2
2017-May-23 10:00N 62°36' E 006°17'0 0.2
2017-May-23 09:29N 62°36' E 006°17'3 5.6
2017-May-23 09:00N 62°38' E 006°17'2 3.6
2017-May-23 08:30N 62°36' E 006°16'2 3.6
2017-May-23 08:00N 62°38' E 006°17'2 3.3
2017-May-23 07:30N 62°37' E 006°15'2 3.2
2017-May-23 07:00N 62°38' E 006°17'2 3.3
2017-May-23 06:30N 62°37' E 006°17'2 3.2
2017-May-23 05:59N 62°37' E 006°13'1 2.2
2017-May-23 05:30N 62°37' E 006°15'2 3.3
2017-May-23 05:00N 62°38' E 006°17'2 3.5
2017-May-23 04:30N 62°37' E 006°16'1 2.1
2017-May-23 04:00N 62°37' E 006°14'1 2.9
2017-May-23 03:31N 62°37' E 006°17'2 3.0
2017-May-23 03:00N 62°37' E 006°14'2 3.4
2017-May-23 02:28N 62°38' E 006°17'0 0.0
2017-May-23 01:58N 62°38' E 006°17'0 0.0
2017-May-23 01:28N 62°38' E 006°17'0 0.0
2017-May-23 00:58N 62°38' E 006°17'0 0.0
2017-May-23 00:28N 62°38' E 006°17'0 0.0
2017-May-23 00:01N 62°38' E 006°17'0 0.0
2017-May-22 23:28N 62°38' E 006°17'0 0.0
2017-May-22 22:58N 62°38' E 006°17'0 0.0
2017-May-22 22:31N 62°38' E 006°17'0 0.0
2017-May-22 22:01N 62°38' E 006°17'2 3.2
2017-May-22 21:30N 62°37' E 006°15'1 1.6
2017-May-22 21:00N 62°37' E 006°13'2 3.4
2017-May-22 20:30N 62°37' E 006°17'2 3.4
2017-May-22 20:00N 62°37' E 006°13'2 3.4
2017-May-22 19:30N 62°37' E 006°17'2 3.1
2017-May-22 19:00N 62°37' E 006°14'2 3.3
2017-May-22 18:30N 62°36' E 006°17'2 3.9
2017-May-22 18:00N 62°38' E 006°17'2 3.3
2017-May-22 17:30N 62°37' E 006°15'2 3.3
2017-May-22 17:00N 62°38' E 006°17'2 3.3
2017-May-22 16:30N 62°37' E 006°15'2 3.4
2017-May-22 16:00N 62°38' E 006°17'2 3.3
2017-May-22 15:30N 62°37' E 006°15'2 3.2
2017-May-22 15:00N 62°38' E 006°17'0 0.0
2017-May-22 14:00N 62°38' E 006°17'2 3.3
2017-May-22 13:30N 62°37' E 006°15'2 3.3
2017-May-22 13:00N 62°38' E 006°17'2 3.2
2017-May-22 12:30N 62°37' E 006°15'2 3.3
2017-May-22 12:00N 62°38' E 006°17'2 3.3
2017-May-22 11:30N 62°37' E 006°14'2 3.2
2017-May-22 10:58N 62°36' E 006°17'0 0.0
2017-May-22 10:28N 62°36' E 006°17'0 0.1
2017-May-22 10:00N 62°36' E 006°17'0 0.0
2017-May-22 09:29N 62°36' E 006°17'3 5.7
2017-May-22 09:00N 62°38' E 006°17'2 3.2
2017-May-22 08:30N 62°37' E 006°15'2 3.2
2017-May-22 08:00N 62°38' E 006°17'2 3.4
2017-May-22 07:30N 62°37' E 006°15'2 3.4
2017-May-22 07:00N 62°38' E 006°17'2 3.1
2017-May-22 06:30N 62°37' E 006°17'2 3.3
2017-May-22 06:00N 62°37' E 006°13'1 2.1
2017-May-22 05:30N 62°37' E 006°15'2 3.3
2017-May-22 05:00N 62°38' E 006°17'2 3.3
2017-May-22 04:30N 62°37' E 006°15'1 1.6
2017-May-22 04:00N 62°37' E 006°13'2 3.4
2017-May-22 03:30N 62°37' E 006°17'2 3.3
2017-May-22 03:00N 62°37' E 006°13'2 3.7
2017-May-22 02:29N 62°38' E 006°17'0 0.0
2017-May-22 01:59N 62°38' E 006°17'0 0.0
2017-May-22 01:29N 62°38' E 006°17'0 0.0
2017-May-22 00:59N 62°38' E 006°17'0 0.0
2017-May-22 00:29N 62°38' E 006°17'0 0.0
2017-May-21 23:59N 62°38' E 006°17'0 0.0
2017-May-21 23:29N 62°38' E 006°17'0 0.0
2017-May-21 22:59N 62°38' E 006°17'0 0.0
2017-May-21 22:29N 62°38' E 006°17'0 0.0
2017-May-21 21:59N 62°38' E 006°17'2 3.8
2017-May-21 21:30N 62°36' E 006°16'2 3.8
2017-May-21 21:00N 62°38' E 006°17'0 0.0
2017-May-21 20:30N 62°38' E 006°17'2 4.0
2017-May-21 20:00N 62°37' E 006°13'2 3.3
2017-May-21 19:31N 62°36' E 006°16'2 4.2
2017-May-21 19:00N 62°38' E 006°17'2 4.1
2017-May-21 18:30N 62°36' E 006°16'2 4.2
2017-May-21 18:00N 62°38' E 006°17'2 3.8
2017-May-21 17:30N 62°36' E 006°16'2 3.9
2017-May-21 17:00N 62°38' E 006°17'2 4.4
2017-May-21 16:30N 62°36' E 006°16'2 4.3
2017-May-21 16:00N 62°38' E 006°17'2 4.3
2017-May-21 15:30N 62°36' E 006°16'2 4.2
2017-May-21 15:00N 62°38' E 006°17'2 4.1
2017-May-21 14:30N 62°36' E 006°16'0 0.0
2017-May-21 13:30N 62°36' E 006°16'2 4.2
2017-May-21 13:00N 62°38' E 006°17'2 3.6
2017-May-21 12:30N 62°36' E 006°16'2 3.6
2017-May-21 12:00N 62°38' E 006°17'2 3.7
2017-May-21 11:30N 62°36' E 006°16'2 3.6
2017-May-21 10:59N 62°38' E 006°17'3 5.5
2017-May-21 10:30N 62°36' E 006°17'0 0.0
2017-May-21 10:00N 62°36' E 006°17'1 1.8
2017-May-21 09:30N 62°36' E 006°16'2 3.8
2017-May-21 09:00N 62°38' E 006°17'2 4.2
2017-May-21 08:30N 62°36' E 006°16'2 4.1
2017-May-21 08:00N 62°38' E 006°17'2 4.3
2017-May-21 07:30N 62°36' E 006°16'2 4.1
2017-May-21 07:00N 62°38' E 006°17'2 4.2
2017-May-21 06:31N 62°36' E 006°16'2 4.1
2017-May-21 06:00N 62°38' E 006°17'0 0.0
2017-May-21 05:28N 62°38' E 006°17'0 0.0
2017-May-21 04:58N 62°38' E 006°17'0 0.0
2017-May-21 04:29N 62°38' E 006°17'0 0.0
2017-May-21 03:58N 62°38' E 006°17'0 0.0
2017-May-21 03:28N 62°38' E 006°17'0 0.0
2017-May-21 02:58N 62°38' E 006°17'0 0.0
2017-May-21 02:28N 62°38' E 006°17'0 0.0
2017-May-21 01:58N 62°38' E 006°17'0 0.0
2017-May-21 01:28N 62°38' E 006°17'0 0.0
2017-May-21 00:58N 62°38' E 006°17'0 0.0
2017-May-21 00:28N 62°38' E 006°17'0 0.0
2017-May-20 23:58N 62°38' E 006°17'0 0.0
2017-May-20 23:28N 62°38' E 006°17'0 0.0
2017-May-20 22:58N 62°38' E 006°17'0 0.0
2017-May-20 22:28N 62°38' E 006°17'2 3.3
2017-May-20 22:00N 62°37' E 006°14'1 2.6
2017-May-20 21:30N 62°36' E 006°16'2 4.0
2017-May-20 21:00N 62°38' E 006°17'2 3.9
2017-May-20 20:30N 62°36' E 006°16'2 3.9
2017-May-20 20:00N 62°38' E 006°17'2 4.3
2017-May-20 19:30N 62°36' E 006°16'2 4.2
2017-May-20 19:00N 62°38' E 006°17'2 4.0
2017-May-20 18:30N 62°36' E 006°16'2 3.8
2017-May-20 18:00N 62°38' E 006°17'2 4.0
2017-May-20 17:30N 62°36' E 006°16'2 3.9
2017-May-20 17:00N 62°38' E 006°17'3 5.4
2017-May-20 16:30N 62°36' E 006°17'0 0.0
2017-May-20 16:00N 62°36' E 006°17'1 2.0
2017-May-20 15:29N 62°36' E 006°16'2 3.8
2017-May-20 15:00N 62°38' E 006°17'2 3.9
2017-May-20 14:30N 62°36' E 006°16'0 0.1
2017-May-20 13:31N 62°36' E 006°16'2 4.1
2017-May-20 13:00N 62°38' E 006°17'2 4.1
2017-May-20 12:31N 62°36' E 006°16'2 4.0
2017-May-20 12:00N 62°38' E 006°17'2 3.4
2017-May-20 11:30N 62°37' E 006°15'2 3.1
2017-May-20 11:00N 62°38' E 006°17'3 6.8
2017-May-20 10:30N 62°35' E 006°14'2 3.9
2017-May-20 10:00N 62°33' E 006°13'4 7.3
2017-May-20 09:30N 62°36' E 006°16'2 3.9
2017-May-20 08:59N 62°38' E 006°17'2 3.9
2017-May-20 08:30N 62°36' E 006°16'2 3.8
2017-May-20 08:00N 62°38' E 006°17'2 3.9
2017-May-20 07:30N 62°36' E 006°16'2 3.8
2017-May-20 07:00N 62°38' E 006°17'2 4.1
2017-May-20 06:30N 62°36' E 006°16'2 4.1
2017-May-20 06:00N 62°38' E 006°17'2 4.2
2017-May-20 05:30N 62°36' E 006°16'2 4.1
2017-May-20 04:59N 62°38' E 006°17'0 0.0
2017-May-20 04:29N 62°38' E 006°17'0 0.0
2017-May-20 03:59N 62°38' E 006°17'0 0.0
2017-May-20 03:30N 62°38' E 006°17'0 0.0
2017-May-20 02:59N 62°38' E 006°17'0 0.0
2017-May-20 02:29N 62°38' E 006°17'0 0.0
2017-May-20 01:59N 62°38' E 006°17'0 0.0
2017-May-20 01:29N 62°38' E 006°17'0 0.0
2017-May-20 01:00N 62°38' E 006°17'0 0.0
2017-May-20 00:29N 62°38' E 006°17'0 0.0
2017-May-19 23:59N 62°38' E 006°17'0 0.0
2017-May-19 23:29N 62°38' E 006°17'0 0.0
2017-May-19 22:59N 62°38' E 006°17'0 0.0
2017-May-19 22:29N 62°38' E 006°17'0 0.6
2017-May-19 22:00N 62°38' E 006°17'2 4.9
2017-May-19 21:30N 62°36' E 006°17'2 4.4
2017-May-19 21:00N 62°37' E 006°13'2 3.1
2017-May-19 20:30N 62°37' E 006°17'2 3.1
2017-May-19 20:00N 62°37' E 006°13'2 3.3
2017-May-19 19:30N 62°37' E 006°17'2 3.3
2017-May-19 19:00N 62°37' E 006°13'2 3.3
2017-May-19 18:30N 62°37' E 006°17'1 2.4
2017-May-19 18:00N 62°38' E 006°17'2 3.4
2017-May-19 17:30N 62°37' E 006°15'2 3.4
2017-May-19 17:00N 62°38' E 006°17'2 3.2
2017-May-19 16:30N 62°37' E 006°15'2 3.2
2017-May-19 16:00N 62°38' E 006°17'2 3.6
2017-May-19 15:30N 62°37' E 006°15'2 3.4
2017-May-19 15:00N 62°38' E 006°17'0 0.0
2017-May-19 14:00N 62°38' E 006°17'2 3.3
2017-May-19 13:31N 62°37' E 006°15'2 3.2
2017-May-19 13:00N 62°38' E 006°17'2 3.3
2017-May-19 12:30N 62°37' E 006°15'2 3.3
2017-May-19 12:00N 62°38' E 006°17'2 3.3
2017-May-19 11:30N 62°37' E 006°15'1 2.9
2017-May-19 11:00N 62°36' E 006°17'0 0.3
2017-May-19 10:30N 62°36' E 006°17'0 0.3
2017-May-19 10:00N 62°36' E 006°17'0 0.3
2017-May-19 09:28N 62°36' E 006°17'3 5.9
2017-May-19 09:00N 62°38' E 006°17'2 3.3
2017-May-19 08:30N 62°37' E 006°15'2 3.3
2017-May-19 08:00N 62°38' E 006°17'2 3.2
2017-May-19 07:30N 62°37' E 006°15'2 3.2
2017-May-19 07:00N 62°38' E 006°17'2 3.5
2017-May-19 06:30N 62°36' E 006°17'2 3.3
2017-May-19 06:00N 62°37' E 006°13'1 2.1
2017-May-19 05:31N 62°37' E 006°15'2 3.3
2017-May-19 05:01N 62°38' E 006°17'2 3.3
2017-May-19 04:30N 62°37' E 006°15'1 1.3
2017-May-19 04:01N 62°37' E 006°13'2 3.4
2017-May-19 03:30N 62°37' E 006°17'2 3.3
2017-May-19 03:00N 62°37' E 006°13'2 3.7
2017-May-19 02:29N 62°38' E 006°17'0 0.0
2017-May-19 01:59N 62°38' E 006°17'0 0.0
2017-May-19 01:29N 62°38' E 006°17'0 0.0
2017-May-19 00:59N 62°38' E 006°17'0 0.0
2017-May-19 00:29N 62°38' E 006°17'0 0.0
2017-May-18 23:59N 62°38' E 006°17'0 0.0
2017-May-18 23:29N 62°38' E 006°17'0 0.0
2017-May-18 22:59N 62°38' E 006°17'0 0.0
2017-May-18 22:29N 62°38' E 006°17'0 0.0
2017-May-18 21:59N 62°38' E 006°17'2 3.4
2017-May-18 21:30N 62°37' E 006°14'1 1.0
2017-May-18 21:00N 62°37' E 006°13'2 3.4
2017-May-18 20:30N 62°37' E 006°17'2 3.3
2017-May-18 19:59N 62°37' E 006°13'2 3.5
2017-May-18 19:30N 62°37' E 006°17'2 3.4
2017-May-18 19:00N 62°37' E 006°13'2 3.3
2017-May-18 18:30N 62°37' E 006°17'1 2.2
2017-May-18 17:59N 62°38' E 006°17'2 3.4
2017-May-18 17:30N 62°37' E 006°15'2 3.4
2017-May-18 17:00N 62°38' E 006°17'2 3.2
2017-May-18 16:29N 62°37' E 006°15'2 3.3
2017-May-18 15:59N 62°38' E 006°17'2 3.4
2017-May-18 15:30N 62°37' E 006°15'2 3.3
2017-May-18 15:00N 62°38' E 006°17'0 0.0
2017-May-18 14:00N 62°38' E 006°17'2 3.4
2017-May-18 13:30N 62°37' E 006°15'2 3.4
2017-May-18 13:00N 62°38' E 006°17'2 3.4
2017-May-18 12:31N 62°37' E 006°15'2 3.4
2017-May-18 12:00N 62°38' E 006°17'2 3.3
2017-May-18 11:30N 62°37' E 006°15'1 2.7
2017-May-18 11:00N 62°36' E 006°17'0 0.2
2017-May-18 10:30N 62°36' E 006°17'0 0.3
2017-May-18 10:00N 62°36' E 006°17'0 0.3
2017-May-18 09:29N 62°36' E 006°17'3 5.6
2017-May-18 09:00N 62°38' E 006°17'2 3.3
2017-May-18 08:30N 62°37' E 006°15'2 3.2
2017-May-18 08:00N 62°38' E 006°17'2 3.3
2017-May-18 07:30N 62°37' E 006°15'2 3.3
2017-May-18 07:00N 62°38' E 006°17'2 3.1
2017-May-18 06:30N 62°37' E 006°17'2 3.2
2017-May-18 06:00N 62°37' E 006°13'1 1.5
2017-May-18 05:30N 62°37' E 006°15'2 3.3
2017-May-18 05:00N 62°38' E 006°17'2 3.3
2017-May-18 04:30N 62°37' E 006°15'1 1.3
2017-May-18 04:00N 62°37' E 006°13'2 3.4
2017-May-18 03:30N 62°37' E 006°17'2 3.1
2017-May-18 03:00N 62°37' E 006°13'2 3.9
2017-May-18 02:30N 62°38' E 006°17'0 0.0
2017-May-18 02:00N 62°38' E 006°17'0 0.0
2017-May-18 01:30N 62°38' E 006°17'0 0.0
2017-May-18 01:00N 62°38' E 006°17'0 0.0
2017-May-18 00:30N 62°38' E 006°17'0 0.0
2017-May-18 00:00N 62°38' E 006°17'0 0.0
2017-May-17 23:30N 62°38' E 006°17'0 0.0
2017-May-17 23:00N 62°38' E 006°17'0 0.0
2017-May-17 22:30N 62°38' E 006°17'2 3.3
2017-May-17 21:59N 62°37' E 006°14'1 2.7
2017-May-17 21:30N 62°36' E 006°16'  

Dump ship's entire track history